Time;durP1;ratioP1;P1;durP2;ratioP2;P2;SDS_P1;SDS_P2;PMS_P1;PMS_P2;Temp;Humidity;BMP_temperature;BMP_pressure;BME280_temperature;BME280_humidity;BME280_pressure;Samples;Min_cycle;Max_cycle;Signal;HPM_P1;HPM_P2
2022/07/04 00:00:15;;;;;;;5.43;1.98;;;;;;;25.41;46.21;100032.94;4966350;28;20512;-84
2022/07/04 00:02:43;;;;;;;4.20;1.90;;;;;;;25.38;46.40;100030.69;4969206;28;20121;-83
2022/07/04 00:05:11;;;;;;;3.38;2.13;;;;;;;25.37;46.59;100028.22;4967072;28;20056;-83
2022/07/04 00:07:44;;;;;;;4.28;1.92;;;;;;;25.36;46.53;100018.38;4983058;28;20079;-84
2022/07/04 00:10:13;;;;;;;3.72;1.92;;;;;;;25.34;46.06;100022.19;4938382;28;20046;-89
2022/07/04 00:12:41;;;;;;;4.97;1.90;;;;;;;25.35;46.29;100017.56;4961903;28;20125;-90
2022/07/04 00:15:09;;;;;;;3.03;1.75;;;;;;;25.33;46.07;100020.50;4969054;28;20054;-90
2022/07/04 00:17:36;;;;;;;3.22;2.45;;;;;;;25.31;46.22;100021.78;4970729;28;20069;-84
2022/07/04 00:20:05;;;;;;;4.30;1.88;;;;;;;25.29;45.82;100013.88;4985804;28;20413;-84
2022/07/04 00:22:32;;;;;;;2.55;1.95;;;;;;;25.29;45.74;100018.47;4961934;28;20050;-84
2022/07/04 00:25:00;;;;;;;3.15;2.03;;;;;;;25.28;45.85;100024.97;4961856;28;20179;-84
2022/07/04 00:27:27;;;;;;;3.80;2.17;;;;;;;25.27;45.99;100028.75;4977805;28;20145;-84
2022/07/04 00:29:55;;;;;;;2.70;2.13;;;;;;;25.27;45.66;100026.03;4951123;28;20103;-84
2022/07/04 00:32:21;;;;;;;3.05;1.70;;;;;;;25.26;46.29;100019.75;4948533;28;20050;-84
2022/07/04 00:34:48;;;;;;;3.80;2.15;;;;;;;25.24;45.97;100021.03;4979182;28;20129;-84
2022/07/04 00:37:16;;;;;;;2.50;1.88;;;;;;;25.23;46.15;100016.66;4969084;28;20387;-84
2022/07/04 00:39:43;;;;;;;6.30;1.98;;;;;;;25.22;46.05;100015.00;4968432;28;20043;-84
2022/07/04 00:42:10;;;;;;;3.60;2.00;;;;;;;25.21;45.66;100022.31;4947075;28;20056;-84
2022/07/04 00:44:37;;;;;;;3.38;2.15;;;;;;;25.19;45.64;100021.72;4971761;28;20050;-84
2022/07/04 00:47:04;;;;;;;2.35;1.80;;;;;;;25.17;46.03;100020.31;4954864;28;20132;-84
2022/07/04 00:49:31;;;;;;;3.65;1.90;;;;;;;25.11;46.33;100022.84;4946593;28;20093;-82
2022/07/04 00:51:59;;;;;;;8.82;2.38;;;;;;;25.09;46.66;100033.09;4975775;28;20046;-84
2022/07/04 00:54:28;;;;;;;2.85;2.20;;;;;;;25.05;47.13;100025.63;4981215;28;20057;-84
2022/07/04 00:56:55;;;;;;;3.25;2.05;;;;;;;25.03;46.94;100033.97;4951848;28;20050;-89
2022/07/04 00:59:22;;;;;;;2.35;1.92;;;;;;;25.02;46.60;100037.75;4982272;28;20056;-90
2022/07/04 01:01:53;;;;;;;3.92;2.00;;;;;;;24.99;47.49;100037.41;4952484;28;20034;-90
2022/07/04 01:04:20;;;;;;;4.85;1.83;;;;;;;24.98;47.17;100033.00;4949978;28;20094;-89
2022/07/04 01:06:47;;;;;;;2.88;1.92;;;;;;;24.96;46.75;100035.09;4961219;28;20101;-89
2022/07/04 01:09:14;;;;;;;3.55;2.17;;;;;;;24.90;47.01;100048.53;4978677;28;20039;-90
2022/07/04 01:11:41;;;;;;;5.45;2.22;;;;;;;24.88;47.50;100050.66;4944269;28;20057;-90
2022/07/04 01:14:12;;;;;;;2.00;1.90;;;;;;;24.84;47.57;100046.72;4947137;28;20509;-90
2022/07/04 01:16:39;;;;;;;2.15;1.90;;;;;;;24.84;47.56;100043.19;4965894;28;20052;-91
2022/07/04 01:19:06;;;;;;;4.90;2.00;;;;;;;24.80;47.60;100048.22;4947844;28;20410;-91
2022/07/04 01:21:33;;;;;;;3.15;1.83;;;;;;;24.78;47.47;100054.94;4952684;28;20124;-91
2022/07/04 01:23:59;;;;;;;3.78;1.98;;;;;;;24.76;47.55;100062.50;4982224;28;20038;-90
2022/07/04 01:26:30;;;;;;;3.58;2.30;;;;;;;24.73;47.57;100066.50;4977341;28;20038;-91
2022/07/04 01:28:57;;;;;;;3.67;1.95;;;;;;;24.73;47.07;100060.19;4985750;28;20068;-90
2022/07/04 01:31:24;;;;;;;3.15;2.15;;;;;;;24.73;46.72;100062.91;4964727;28;20049;-91
2022/07/04 01:33:51;;;;;;;7.55;2.30;;;;;;;24.69;48.05;100063.38;4963543;28;20486;-89
2022/07/04 01:36:18;;;;;;;2.80;2.22;;;;;;;24.66;48.46;100058.38;4968278;28;20052;-90
2022/07/04 01:38:44;;;;;;;3.67;2.17;;;;;;;24.63;48.40;100055.31;4961188;28;20140;-90
2022/07/04 01:41:11;;;;;;;5.07;2.22;;;;;;;24.61;48.37;100055.50;4965191;28;20129;-84
2022/07/04 01:43:38;;;;;;;2.35;2.15;;;;;;;24.58;48.50;100049.72;4952468;28;20505;-83
2022/07/04 01:46:05;;;;;;;3.28;2.33;;;;;;;24.54;48.12;100053.91;4967722;28;20045;-83
2022/07/04 01:48:31;;;;;;;3.60;2.10;;;;;;;24.53;48.17;100057.69;4963172;28;20074;-84
2022/07/04 01:50:59;;;;;;;5.35;2.05;;;;;;;24.54;47.98;100065.59;4961367;28;20046;-83
2022/07/04 01:53:26;;;;;;;3.22;2.00;;;;;;;24.52;47.66;100067.69;4961548;28;20045;-89
2022/07/04 01:55:53;;;;;;;5.70;2.00;;;;;;;24.49;47.84;100070.84;4951137;28;20049;-88
2022/07/04 01:58:19;;;;;;;3.00;1.83;;;;;;;24.48;47.52;100075.47;4940131;28;20045;-88
2022/07/04 02:03:32;;;;;;;4.32;2.40;;;;;;;24.44;47.47;100082.34;4948834;28;20046;-89
2022/07/04 02:05:59;;;;;;;1.95;1.75;;;;;;;24.41;47.70;100085.50;4917592;28;20106;-89
2022/07/04 02:09:14;;;;;;;6.70;2.28;;;;;;;24.37;48.16;100073.41;4931441;28;20407;-90
2022/07/04 02:11:12;;;;;;;4.90;2.30;;;;;;;24.33;47.78;100074.09;4921235;28;20053;-90
2022/07/04 02:13:39;;;;;;;3.70;2.15;;;;;;;24.31;47.65;100073.47;4931392;28;20042;-90
2022/07/04 02:16:06;;;;;;;3.30;2.25;;;;;;;24.26;48.56;100080.38;4920018;28;20089;-91
2022/07/04 02:18:33;;;;;;;3.00;2.40;;;;;;;24.21;48.42;100084.81;4949665;28;20050;-91
2022/07/04 02:21:00;;;;;;;4.10;2.10;;;;;;;24.16;48.49;100085.47;4945132;28;20046;-83
2022/07/04 02:23:31;;;;;;;4.47;2.05;;;;;;;24.12;47.87;100086.09;4911810;28;20079;-84
2022/07/04 02:25:58;;;;;;;3.50;2.30;;;;;;;24.11;47.82;100087.16;4936865;28;20042;-83
2022/07/04 02:28:25;;;;;;;3.72;2.38;;;;;;;24.08;47.62;100090.31;4943188;28;20069;-83
2022/07/04 02:30:51;;;;;;;2.92;2.10;;;;;;;24.05;47.38;100083.47;4931129;28;20555;-83
2022/07/04 02:33:18;;;;;;;4.15;2.20;;;;;;;24.03;47.98;100093.69;4933287;28;20540;-84
2022/07/04 02:35:45;;;;;;;4.35;2.00;;;;;;;24.01;47.85;100093.91;4971141;28;20118;-89
2022/07/04 02:38:12;;;;;;;2.60;2.13;;;;;;;23.97;47.99;100100.81;4952837;28;20440;-88
2022/07/04 02:40:39;;;;;;;2.80;2.22;;;;;;;23.98;48.73;100112.50;4954716;28;20050;-89
2022/07/04 02:43:05;;;;;;;8.27;2.45;;;;;;;23.93;49.25;100107.72;4989240;28;20065;-89
2022/07/04 02:45:32;;;;;;;2.42;2.22;;;;;;;23.91;49.43;100108.97;4970166;28;20045;-90
2022/07/04 02:47:59;;;;;;;2.53;2.33;;;;;;;23.90;49.11;100110.88;4968801;28;20042;-89
2022/07/04 02:50:25;;;;;;;3.60;2.10;;;;;;;23.87;48.87;100116.72;4957023;28;20041;-82
2022/07/04 02:52:52;;;;;;;2.00;1.90;;;;;;;23.86;48.61;100115.03;4964177;28;20118;-83
2022/07/04 02:55:19;;;;;;;4.47;2.00;;;;;;;23.82;49.01;100114.66;4986572;28;20084;-84
2022/07/04 02:57:46;;;;;;;3.45;1.98;;;;;;;23.82;48.95;100120.09;4965087;28;20048;-83
2022/07/04 03:00:13;;;;;;;3.05;2.30;;;;;;;23.85;49.07;100124.25;4977490;28;20401;-90
2022/07/04 03:02:40;;;;;;;4.28;2.20;;;;;;;23.85;49.02;100128.84;4948400;28;20062;-89
2022/07/04 03:05:07;;;;;;;3.70;2.40;;;;;;;23.83;49.32;100129.88;4969493;28;20057;-91
2022/07/04 03:07:34;;;;;;;3.80;2.20;;;;;;;23.84;49.89;100122.59;4951730;28;20041;-84
2022/07/04 03:10:01;;;;;;;3.75;1.95;;;;;;;23.85;49.60;100128.84;4967983;28;20058;-83
2022/07/04 03:12:27;;;;;;;3.95;2.40;;;;;;;23.85;49.43;100129.66;4987664;28;20038;-79
2022/07/04 03:14:54;;;;;;;5.75;2.17;;;;;;;23.85;49.20;100126.13;4954165;28;20050;-82
2022/07/04 03:17:21;;;;;;;2.95;2.22;;;;;;;23.84;49.70;100133.44;4983440;28;20133;-82
2022/07/04 03:19:50;;;;;;;4.55;2.10;;;;;;;23.82;49.59;100132.81;4969911;28;20072;-87
2022/07/04 03:22:17;;;;;;;8.38;2.90;;;;;;;23.80;49.47;100133.03;4963410;28;20123;-87
2022/07/04 03:24:44;;;;;;;5.28;2.58;;;;;;;23.78;50.13;100137.81;4979700;28;20049;-87
2022/07/04 03:27:11;;;;;;;4.57;2.42;;;;;;;23.76;49.66;100139.06;4984680;28;20056;-87
2022/07/04 03:29:38;;;;;;;3.53;2.20;;;;;;;23.72;50.50;100135.97;4996787;28;20045;-87
2022/07/04 03:32:05;;;;;;;6.53;2.58;;;;;;;23.70;50.80;100142.63;4966359;28;20044;-87
2022/07/04 03:34:37;;;;;;;4.65;2.33;;;;;;;23.68;51.22;100144.72;4977346;28;20034;-87
2022/07/04 03:37:04;;;;;;;5.22;2.20;;;;;;;23.70;50.70;100154.31;4948981;28;20045;-87
2022/07/04 03:39:31;;;;;;;5.25;2.58;;;;;;;23.69;50.81;100146.41;4959288;28;20046;-84
2022/07/04 03:41:57;;;;;;;4.88;2.47;;;;;;;23.68;50.14;100148.25;4962649;28;20042;-80
2022/07/04 03:44:24;;;;;;;3.25;2.20;;;;;;;23.62;50.70;100141.00;4979858;28;20042;-87
2022/07/04 03:46:51;;;;;;;4.20;2.35;;;;;;;23.57;50.76;100141.63;4981327;28;20048;-87
2022/07/04 03:49:17;;;;;;;5.97;2.13;;;;;;;23.55;51.03;100148.31;4979082;28;20058;-87
2022/07/04 03:51:44;;;;;;;6.80;2.40;;;;;;;23.49;51.42;100150.00;4978212;28;20120;-87
2022/07/04 03:54:11;;;;;;;4.68;2.30;;;;;;;23.47;51.49;100159.38;4985765;28;20518;-79
2022/07/04 03:56:43;;;;;;;5.63;2.30;;;;;;;23.44;51.41;100167.94;4973580;28;20565;-84
2022/07/04 03:59:10;;;;;;;4.10;2.28;;;;;;;23.43;51.53;100161.66;4967073;28;20468;-83
2022/07/04 04:01:37;;;;;;;4.38;2.28;;;;;;;23.43;51.79;100166.25;4946765;28;20061;-84
2022/07/04 04:06:50;;;;;;;5.00;2.03;;;;;;;23.42;50.89;100170.84;4947405;28;20052;-84
2022/07/04 04:09:19;;;;;;;2.53;2.33;;;;;;;23.44;50.80;100174.19;4968392;28;20050;-84
2022/07/04 04:11:45;;;;;;;2.70;2.50;;;;;;;23.49;50.81;100184.41;4969470;28;20105;-84
2022/07/04 04:14:12;;;;;;;2.92;2.08;;;;;;;23.68;50.46;100179.97;4976703;28;20601;-84
2022/07/04 04:16:39;;;;;;;2.88;2.13;;;;;;;23.78;49.86;100188.50;4968204;28;20663;-84
2022/07/04 04:19:06;;;;;;;3.30;2.38;;;;;;;23.81;49.64;100178.09;4989529;28;20493;-84
2022/07/04 04:21:33;;;;;;;3.22;2.30;;;;;;;23.92;49.66;100182.00;4983940;28;20498;-85
2022/07/04 04:24:00;;;;;;;2.47;2.28;;;;;;;24.00;49.59;100181.75;4987910;28;20054;-79
2022/07/04 04:26:27;;;;;;;4.72;2.35;;;;;;;24.11;49.32;100182.13;4950127;28;20053;-87
2022/07/04 04:28:54;;;;;;;4.05;2.45;;;;;;;24.19;49.02;100174.56;4967106;28;20056;-87
2022/07/04 04:31:21;;;;;;;6.63;2.40;;;;;;;24.27;49.02;100182.47;4952848;28;20069;-79
2022/07/04 04:33:48;;;;;;;4.43;2.10;;;;;;;24.16;48.74;100183.13;4952288;28;20513;-79
2022/07/04 04:36:14;;;;;;;4.55;2.55;;;;;;;24.23;49.12;100188.53;4972869;28;20065;-80
2022/07/04 04:38:41;;;;;;;5.57;2.78;;;;;;;24.29;48.99;100179.53;4962355;28;20034;-79
2022/07/04 04:41:08;;;;;;;3.30;2.30;;;;;;;24.40;48.93;100184.28;4945637;28;20050;-79
2022/07/04 04:43:34;;;;;;;4.35;2.15;;;;;;;24.38;48.81;100191.81;4979311;28;20046;-80
2022/07/04 04:46:01;;;;;;;2.92;2.33;;;;;;;24.29;48.94;100192.25;4950489;28;20079;-82
2022/07/04 04:48:28;;;;;;;12.02;2.88;;;;;;;24.22;48.98;100195.00;4972394;28;20069;-82
2022/07/04 04:50:56;;;;;;;6.13;2.53;;;;;;;24.16;49.03;100198.59;4975459;28;20137;-82
2022/07/04 04:53:25;;;;;;;3.67;2.58;;;;;;;24.16;49.09;100202.13;4961252;28;20046;-82
2022/07/04 04:55:52;;;;;;;3.25;2.30;;;;;;;24.23;48.64;100191.25;4978845;28;20494;-82
2022/07/04 04:58:20;;;;;;;4.50;2.90;;;;;;;24.35;49.07;100207.66;4969546;28;20042;-82
2022/07/04 05:00:48;;;;;;;6.88;2.88;;;;;;;24.41;48.61;100204.94;4966205;28;20049;-82
2022/07/04 05:03:35;;;;;;;6.75;2.35;;;;;;;24.44;48.20;100209.09;4981762;28;20065;-86
2022/07/04 05:06:02;;;;;;;3.40;2.67;;;;;;;24.44;47.78;100209.09;4993119;28;20046;-87
2022/07/04 05:08:29;;;;;;;3.17;2.60;;;;;;;24.43;47.95;100207.44;4962574;28;20105;-86
2022/07/04 05:10:56;;;;;;;4.22;2.50;;;;;;;24.41;48.01;100212.25;4961157;28;20064;-87
2022/07/04 05:13:23;;;;;;;5.63;2.70;;;;;;;24.40;47.75;100214.13;4962232;28;20482;-87
2022/07/04 05:15:51;;;;;;;4.22;2.40;;;;;;;24.32;47.86;100217.06;4996132;28;20405;-84
2022/07/04 05:18:17;;;;;;;4.28;2.65;;;;;;;24.25;47.89;100213.59;4963965;28;20055;-84
2022/07/04 05:20:44;;;;;;;5.50;2.67;;;;;;;24.18;47.99;100216.31;4949753;28;20069;-84
2022/07/04 05:23:11;;;;;;;3.83;2.63;;;;;;;24.16;48.12;100209.44;4968517;28;20074;-84
2022/07/04 05:25:38;;;;;;;7.45;2.47;;;;;;;24.13;48.24;100209.88;4979942;28;20466;-84
2022/07/04 05:28:06;;;;;;;3.58;3.25;;;;;;;24.06;48.40;100209.91;4960702;28;20041;-84
2022/07/04 05:30:33;;;;;;;4.10;2.33;;;;;;;24.01;48.64;100212.41;4959158;28;20046;-84
2022/07/04 05:33:01;;;;;;;5.70;2.88;;;;;;;23.99;48.99;100218.09;4966536;28;20077;-82
2022/07/04 05:35:29;;;;;;;3.92;2.50;;;;;;;23.99;48.85;100220.78;4978384;28;20053;-82
2022/07/04 05:37:56;;;;;;;6.68;2.65;;;;;;;24.01;48.97;100226.00;4983546;28;20057;-82
2022/07/04 05:40:22;;;;;;;3.88;2.50;;;;;;;24.03;48.98;100227.44;4965221;28;20100;-84
2022/07/04 05:42:49;;;;;;;4.97;2.60;;;;;;;24.05;49.23;100230.78;4977169;28;20069;-85
2022/07/04 05:45:16;;;;;;;7.85;2.58;;;;;;;24.11;48.80;100222.81;4961121;28;20062;-84
2022/07/04 05:47:44;;;;;;;4.70;2.65;;;;;;;24.15;48.77;100234.94;4981897;28;20062;-84
2022/07/04 05:50:12;;;;;;;4.20;2.70;;;;;;;24.21;48.93;100236.75;4988529;28;20597;-85
2022/07/04 05:52:39;;;;;;;2.65;2.33;;;;;;;24.28;48.63;100232.16;4974616;28;20049;-84
2022/07/04 05:55:07;;;;;;;8.55;2.20;;;;;;;24.34;48.32;100238.59;4976549;28;20046;-84
2022/07/04 05:57:34;;;;;;;4.32;2.45;;;;;;;24.37;48.15;100233.53;4977711;28;20058;-84
2022/07/04 06:00:01;;;;;;;8.82;2.67;;;;;;;24.41;48.62;100234.78;4981533;28;20366;-84
2022/07/04 06:02:31;;;;;;;4.75;2.47;;;;;;;24.49;48.52;100239.16;4960433;28;20049;-84
2022/07/04 06:04:58;;;;;;;4.50;2.38;;;;;;;24.51;48.24;100241.69;4973570;28;20058;-83
2022/07/04 06:07:25;;;;;;;5.55;2.30;;;;;;;24.55;47.85;100242.88;4979875;28;20137;-78
2022/07/04 06:09:57;;;;;;;2.38;2.10;;;;;;;24.53;47.48;100242.28;4968924;28;20046;-80
2022/07/04 06:12:25;;;;;;;5.97;2.00;;;;;;;24.57;47.64;100246.22;4980094;28;20490;-86
2022/07/04 06:14:52;;;;;;;5.93;2.50;;;;;;;24.57;47.72;100243.50;4954027;28;20046;-85
2022/07/04 06:17:19;;;;;;;3.95;2.40;;;;;;;24.63;48.10;100242.66;4975169;28;20499;-84
2022/07/04 06:19:50;;;;;;;4.93;2.20;;;;;;;24.65;47.45;100249.53;4962032;28;20053;-85
2022/07/04 06:22:17;;;;;;;4.20;2.47;;;;;;;24.76;46.85;100248.00;4963941;28;20038;-85
2022/07/04 06:24:50;;;;;;;5.00;2.40;;;;;;;24.80;47.24;100243.78;4966509;28;20045;-86
2022/07/04 06:27:17;;;;;;;11.27;2.33;;;;;;;24.86;47.23;100245.63;4976142;28;20054;-85
2022/07/04 06:29:44;;;;;;;6.68;2.53;;;;;;;24.90;46.72;100240.56;4947364;28;20368;-80
2022/07/04 06:32:10;;;;;;;4.47;2.28;;;;;;;24.88;46.34;100237.25;4952430;28;20046;-80
2022/07/04 06:37:24;;;;;;;4.30;2.53;;;;;;;24.92;46.34;100230.31;4948741;28;20045;-81
2022/07/04 06:39:51;;;;;;;5.13;2.25;;;;;;;24.89;46.43;100242.47;4986217;28;20048;-80
2022/07/04 06:42:18;;;;;;;5.00;2.38;;;;;;;24.87;46.16;100235.59;4978097;28;20066;-79
2022/07/04 06:44:48;;;;;;;2.80;2.28;;;;;;;24.85;45.50;100229.53;4963247;28;20061;-79
2022/07/04 06:47:15;;;;;;;5.43;2.50;;;;;;;24.85;45.71;100235.81;4971072;28;20049;-79
2022/07/04 06:49:41;;;;;;;3.10;2.10;;;;;;;24.81;46.26;100241.91;4947529;28;20050;-80
2022/07/04 06:52:08;;;;;;;4.18;1.90;;;;;;;24.82;45.67;100232.69;4963233;28;20121;-79
2022/07/04 06:54:35;;;;;;;4.70;2.42;;;;;;;24.83;45.11;100237.06;4980286;28;20038;-79
2022/07/04 06:57:03;;;;;;;4.28;2.13;;;;;;;24.81;44.89;100239.19;4953120;28;20069;-80
2022/07/04 06:59:50;;;;;;;2.60;2.15;;;;;;;24.78;44.82;100243.19;4969294;28;20674;-79
2022/07/04 07:02:17;;;;;;;4.78;2.38;;;;;;;24.77;44.95;100236.06;4965693;28;20109;-80
2022/07/04 07:04:44;;;;;;;4.35;2.33;;;;;;;24.77;45.01;100233.34;4971520;28;20042;-79
2022/07/04 07:07:11;;;;;;;6.75;2.17;;;;;;;24.79;45.06;100225.81;4996846;28;20046;-83
2022/07/04 07:09:42;;;;;;;3.05;2.15;;;;;;;24.80;45.03;100221.22;4979230;28;20069;-85
2022/07/04 07:12:10;;;;;;;2.90;2.33;;;;;;;24.84;44.77;100226.00;4965747;28;20053;-85
2022/07/04 07:14:36;;;;;;;4.25;2.22;;;;;;;24.87;44.49;100222.00;4968051;28;20476;-83
2022/07/04 07:17:05;;;;;;;2.95;2.30;;;;;;;24.88;44.72;100223.66;4989906;28;20499;-83
2022/07/04 07:19:32;;;;;;;5.43;2.30;;;;;;;24.80;44.57;100221.22;4996776;28;20661;-84
2022/07/04 07:22:00;;;;;;;6.03;2.40;;;;;;;24.82;44.27;100219.13;4965075;28;20046;-83
2022/07/04 07:24:32;;;;;;;3.05;2.25;;;;;;;24.80;44.24;100210.34;4958654;28;20049;-83
2022/07/04 07:26:59;;;;;;;6.05;2.40;;;;;;;24.78;44.79;100213.31;4966602;28;20045;-83
2022/07/04 07:29:27;;;;;;;3.17;2.20;;;;;;;24.76;44.72;100201.81;4982856;28;20039;-85
2022/07/04 07:31:53;;;;;;;2.42;2.03;;;;;;;24.81;44.87;100202.00;4997691;28;20077;-84
2022/07/04 07:34:20;;;;;;;3.50;2.40;;;;;;;24.82;45.33;100194.69;4977342;28;20046;-84
2022/07/04 07:36:47;;;;;;;4.75;2.40;;;;;;;24.71;45.22;100196.22;4986002;28;20402;-86
2022/07/04 07:39:14;;;;;;;5.63;2.28;;;;;;;24.72;44.81;100194.34;4964495;28;20046;-87
2022/07/04 07:41:41;;;;;;;5.60;2.88;;;;;;;24.73;44.63;100193.28;4950292;28;20494;-86
2022/07/04 07:44:08;;;;;;;3.08;2.35;;;;;;;24.65;45.57;100189.78;4963065;28;20116;-87
2022/07/04 07:46:35;;;;;;;4.35;2.30;;;;;;;24.69;45.13;100184.75;4967202;28;20516;-87
2022/07/04 07:49:03;;;;;;;4.55;2.33;;;;;;;24.68;45.56;100183.91;4950903;28;20121;-86
2022/07/04 07:51:30;;;;;;;2.28;2.00;;;;;;;24.69;45.57;100191.00;4968122;28;20116;-87
2022/07/04 07:53:56;;;;;;;4.60;2.60;;;;;;;24.75;45.90;100193.88;4977882;28;20049;-87
2022/07/04 07:56:42;;;;;;;3.83;2.60;;;;;;;24.83;45.25;100186.31;4938468;28;20115;-87
2022/07/04 07:59:09;;;;;;;3.08;2.30;;;;;;;24.84;45.85;100192.56;4950376;28;20054;-87
2022/07/04 08:01:36;;;;;;;3.35;2.63;;;;;;;24.88;44.50;100182.91;4945816;28;20055;-86
2022/07/04 08:06:48;;;;;;;3.97;2.60;;;;;;;24.81;45.18;100179.44;4968042;28;20125;-86
2022/07/04 08:09:36;;;;;;;3.63;2.40;;;;;;;24.82;44.71;100181.91;4979040;28;20049;-86
2022/07/04 08:12:04;;;;;;;4.63;2.35;;;;;;;24.77;44.95;100178.22;4991726;28;20798;-85
2022/07/04 08:14:31;;;;;;;4.20;2.60;;;;;;;24.81;45.45;100174.84;4978982;28;20109;-80
2022/07/04 08:16:58;;;;;;;4.38;2.50;;;;;;;24.91;45.26;100171.63;4952099;28;20053;-77
2022/07/04 08:19:28;;;;;;;2.55;2.20;;;;;;;24.98;44.71;100171.56;4975169;28;20351;-81
2022/07/04 08:21:54;;;;;;;2.85;2.10;;;;;;;25.01;45.04;100166.53;4962652;28;20068;-81
2022/07/04 08:24:40;;;;;;;2.67;2.33;;;;;;;25.12;44.95;100167.69;4968054;28;20096;-80
2022/07/04 08:27:07;;;;;;;3.28;2.40;;;;;;;25.09;44.86;100163.53;4982046;28;20047;-80
2022/07/04 08:29:34;;;;;;;4.00;2.25;;;;;;;25.12;44.87;100165.78;4969936;28;20060;-80
2022/07/04 08:32:03;;;;;;;3.40;2.08;;;;;;;25.18;44.23;100155.94;4968011;28;20088;-81
2022/07/04 08:34:30;;;;;;;3.05;2.08;;;;;;;25.24;44.56;100156.91;4968295;28;20070;-82
2022/07/04 08:36:57;;;;;;;5.03;2.25;;;;;;;25.26;43.92;100154.81;4977631;28;20057;-82
2022/07/04 08:39:23;;;;;;;4.32;2.20;;;;;;;25.30;44.35;100151.44;4967132;28;20559;-82
2022/07/04 08:41:52;;;;;;;4.30;1.98;;;;;;;25.35;43.52;100148.03;4955027;28;20497;-85
2022/07/04 08:44:20;;;;;;;3.70;2.20;;;;;;;25.35;43.23;100148.03;4971040;28;20061;-84
2022/07/04 08:46:50;;;;;;;3.53;2.30;;;;;;;25.39;43.38;100151.13;4961535;28;20409;-83
2022/07/04 08:49:22;;;;;;;3.33;2.13;;;;;;;25.41;42.99;100149.03;4958608;28;20128;-84
2022/07/04 08:51:59;;;;;;;4.53;2.05;;;;;;;25.46;42.97;100141.03;4952278;28;20054;-84
2022/07/04 08:59:58;;;;;;;5.57;2.47;;;;;;;25.29;42.91;100140.78;4946588;28;20045;-82
2022/07/04 09:02:27;;;;;;;4.43;2.55;;;;;;;25.32;42.62;100135.72;4953932;28;20509;-82
2022/07/04 09:04:54;;;;;;;2.78;2.13;;;;;;;25.39;42.78;100142.97;4953511;28;20052;-82
2022/07/04 09:07:24;;;;;;;2.95;2.50;;;;;;;25.27;42.19;100141.00;4983208;28;20437;-84
2022/07/04 09:09:51;;;;;;;2.67;2.13;;;;;;;25.26;42.16;100147.47;4965346;28;20045;-86
2022/07/04 09:12:19;;;;;;;2.20;1.92;;;;;;;25.29;42.35;100135.34;4980719;28;20050;-86
2022/07/04 09:14:45;;;;;;;5.50;2.35;;;;;;;25.29;43.10;100133.47;4956505;28;20046;-86
2022/07/04 09:17:12;;;;;;;4.47;2.38;;;;;;;25.36;43.66;100140.72;4972124;28;20406;-85
2022/07/04 09:19:39;;;;;;;2.40;2.20;;;;;;;25.27;43.38;100143.72;4980983;28;20050;-87
2022/07/04 09:22:14;;;;;;;2.80;2.38;;;;;;;25.22;42.63;100150.91;4961398;28;20121;-87
2022/07/04 09:24:49;;;;;;;3.55;2.40;;;;;;;25.20;42.38;100150.28;4949202;28;20116;-85
2022/07/04 09:27:30;;;;;;;1.90;1.80;;;;;;;25.21;41.85;100168.25;4979183;28;20037;-83
2022/07/04 09:29:56;;;;;;;2.97;2.28;;;;;;;25.36;42.53;100155.13;4981750;28;20053;-84
2022/07/04 09:32:33;;;;;;;3.92;2.65;;;;;;;25.44;42.44;100160.28;4984954;28;20052;-84
2022/07/04 09:35:12;;;;;;;2.63;2.40;;;;;;;25.45;41.92;100152.97;4964176;28;20047;-84
2022/07/04 09:37:45;;;;;;;3.72;2.30;;;;;;;25.47;42.03;100159.00;4998388;28;20121;-84
2022/07/04 09:40:31;;;;;;;3.53;2.30;;;;;;;25.40;42.67;100156.34;4964424;28;20555;-85
2022/07/04 09:43:00;;;;;;;2.60;2.00;;;;;;;25.42;42.84;100167.00;4991736;28;20093;-85
2022/07/04 09:45:28;;;;;;;2.78;2.25;;;;;;;25.28;42.57;100169.03;4954480;28;20486;-83
2022/07/04 09:47:57;;;;;;;3.17;2.30;;;;;;;25.25;42.37;100170.28;4965998;28;20195;-84
2022/07/04 09:50:26;;;;;;;2.67;2.40;;;;;;;25.39;42.53;100162.00;4981619;28;20038;-84
2022/07/04 09:52:57;;;;;;;2.83;2.22;;;;;;;25.29;42.48;100165.22;4949073;28;20064;-80
2022/07/04 09:55:25;;;;;;;4.85;2.00;;;;;;;25.21;41.80;100165.53;4994449;28;20046;-82
2022/07/04 09:57:53;;;;;;;3.00;1.77;;;;;;;25.22;42.18;100161.78;4969564;28;20099;-81
2022/07/04 10:00:24;;;;;;;2.83;1.90;;;;;;;25.24;42.55;100163.22;4955724;28;20046;-82
2022/07/04 10:02:52;;;;;;;6.13;2.30;;;;;;;25.31;42.64;100171.28;4966750;28;20049;-80
2022/07/04 10:05:21;;;;;;;3.30;1.90;;;;;;;25.34;41.29;100166.25;4976954;28;20505;-83
2022/07/04 10:07:48;;;;;;;2.03;1.80;;;;;;;25.24;40.80;100163.22;4986301;28;20042;-81
2022/07/04 10:10:31;;;;;;;1.75;1.65;;;;;;;25.28;39.80;100158.16;4952130;28;20057;-82
2022/07/04 10:13:05;;;;;;;3.45;1.60;;;;;;;25.29;40.55;100155.22;4954177;28;20042;-81
2022/07/04 10:15:33;;;;;;;2.47;1.90;;;;;;;25.33;40.47;100159.13;4991468;28;20061;-81
2022/07/04 10:18:26;;;;;;;2.25;1.77;;;;;;;25.39;41.14;100157.41;4978369;28;20383;-81
2022/07/04 10:20:54;;;;;;;2.95;2.05;;;;;;;25.66;41.00;100144.34;4949767;28;20409;-81
2022/07/04 10:23:23;;;;;;;1.85;1.70;;;;;;;25.71;40.69;100154.53;4994879;28;20054;-80
2022/07/04 10:25:53;;;;;;;4.53;2.13;;;;;;;25.80;40.20;100155.91;4976702;28;20045;-80
2022/07/04 10:28:22;;;;;;;3.55;1.83;;;;;;;25.86;40.25;100152.28;4981221;28;20405;-79
2022/07/04 10:30:52;;;;;;;4.32;2.00;;;;;;;25.93;39.81;100150.31;4955627;28;20482;-82
2022/07/04 10:33:29;;;;;;;3.55;1.90;;;;;;;26.00;39.37;100158.38;4988639;28;20133;-81
2022/07/04 10:36:01;;;;;;;2.60;1.88;;;;;;;26.06;39.57;100143.06;5000184;28;20050;-80
2022/07/04 10:38:50;;;;;;;2.80;1.85;;;;;;;26.05;39.96;100163.16;4969367;28;20112;-82
2022/07/04 10:41:21;;;;;;;3.05;1.88;;;;;;;26.01;39.38;100151.06;4941030;28;20045;-82
2022/07/04 10:44:14;;;;;;;4.07;1.80;;;;;;;25.98;39.35;100157.81;4952518;28;20061;-81
2022/07/04 10:46:49;;;;;;;5.20;2.50;;;;;;;26.05;39.90;100154.97;4973535;28;20042;-81
2022/07/04 10:49:24;;;;;;;4.07;2.05;;;;;;;26.09;39.63;100157.03;4941095;28;20096;-80
2022/07/04 10:51:52;;;;;;;2.28;1.52;;;;;;;26.11;39.71;100156.81;4980300;28;20038;-82
2022/07/04 10:54:31;;;;;;;2.75;1.67;;;;;;;26.13;39.57;100171.00;4984413;28;20133;-81
2022/07/04 10:57:15;;;;;;;4.05;1.90;;;;;;;26.13;39.27;100160.09;4970763;28;20643;-82
2022/07/04 11:00:07;;;;;;;1.92;1.80;;;;;;;26.12;39.29;100155.72;4985158;28;20709;-83
2022/07/04 11:02:36;;;;;;;3.10;1.70;;;;;;;26.23;38.82;100152.25;4939912;28;20489;-83
2022/07/04 11:05:11;;;;;;;5.38;1.85;;;;;;;26.23;37.33;100148.66;4968744;28;20125;-84
2022/07/04 11:07:41;;;;;;;2.40;1.90;;;;;;;26.25;37.49;100154.72;4955029;28;20049;-84
2022/07/04 11:10:33;;;;;;;2.50;1.90;;;;;;;26.27;37.87;100167.03;4995730;28;20050;-84
2022/07/04 11:12:58;;;;;;;2.70;1.48;;;;;;;26.35;38.17;100155.00;4942330;28;20073;-86
2022/07/04 11:15:24;;;;;;;1.70;1.60;;;;;;;26.40;37.87;100153.22;4961291;28;20050;-84
2022/07/04 11:17:53;;;;;;;3.15;1.85;;;;;;;26.36;37.74;100162.94;4968142;28;20498;-85
2022/07/04 11:20:21;;;;;;;2.35;1.27;;;;;;;26.47;36.31;100165.94;4964948;28;20130;-82
2022/07/04 11:22:47;;;;;;;1.85;1.40;;;;;;;26.43;36.24;100160.09;4986220;28;20125;-82
2022/07/04 11:25:15;;;;;;;3.58;2.00;;;;;;;26.30;36.32;100154.84;4969311;28;20488;-82
2022/07/04 11:27:42;;;;;;;4.28;1.67;;;;;;;26.33;36.17;100151.66;4982815;28;20511;-83
2022/07/04 11:30:13;;;;;;;3.20;1.50;;;;;;;26.28;35.26;100159.69;4988278;28;20042;-80
2022/07/04 11:32:42;;;;;;;2.92;1.80;;;;;;;26.30;35.31;100150.22;4967925;28;20041;-82
2022/07/04 11:35:09;;;;;;;2.50;1.60;;;;;;;26.32;36.17;100144.56;4949162;28;20501;-83
2022/07/04 11:37:35;;;;;;;3.05;1.30;;;;;;;26.37;36.21;100134.63;4974957;28;20045;-83
2022/07/04 11:49:59;;;;;;;6.47;1.80;;;;;;;26.53;35.04;100152.22;4983483;28;20528;-83
2022/07/04 11:52:29;;;;;;;3.20;1.80;;;;;;;26.44;34.12;100139.16;4981669;28;20042;-83
2022/07/04 11:55:17;;;;;;;4.15;1.50;;;;;;;26.30;35.39;100127.63;4953355;28;20100;-83
2022/07/04 11:58:38;;;;;;;4.03;1.65;;;;;;;26.22;35.10;100133.41;4962307;28;20442;-83